Cap Bianco — A8OK5 — position and weather

sailwx.info

Track history (hours):
 
Tides and Currents Weather Stations Pressure Air Temp Water Temp Dewpoint Dewpoint Depression Visibility Wind Speed Wind Dir Waves Ship Positions

Cap Bianco

Last reported at 2015-Feb-19 21:27 UTC. Time now 2015-Feb-27 15:22 UTC.
Position S 24°13' W 046°26'.

Length 222 m; draft 6.8 m.

Type: Cargo ship. MMSI: 636091489.

Date/timePositionNaut miles runAvg speedWind from/ knotsBaromVisibWave heightAir tempDewpointWater temp
2015-Feb-19 21:27S 24°13' W 046°26'1213.1
2015-Feb-19 20:33S 24°02' W 046°21'5 3.6
2015-Feb-19 19:10S 23°58' W 046°18'0 0.0
2015-Feb-19 18:13S 23°58' W 046°18'0 0.0
2015-Feb-19 17:22S 23°58' W 046°18'0 0.0
2015-Feb-19 16:10S 23°58' W 046°18'0 0.0
2015-Feb-19 15:22S 23°58' W 046°18'0 0.0
2015-Feb-19 14:10S 23°58' W 046°18'0 0.0
2015-Feb-19 13:22S 23°58' W 046°18'0 0.0
2015-Feb-19 12:25S 23°58' W 046°18'0 0.0
2015-Feb-19 10:22S 23°58' W 046°18'0 0.0
2015-Feb-19 08:22S 23°58' W 046°18'0 0.0
2015-Feb-19 07:10S 23°58' W 046°18'0 0.0
2015-Feb-19 06:22S 23°58' W 046°18'0 0.0
2015-Feb-19 04:10S 23°58' W 046°18'0 0.0
2015-Feb-19 03:22S 23°58' W 046°18'0 0.0
2015-Feb-19 02:10S 23°58' W 046°18'0 0.0
2015-Feb-19 01:10S 23°58' W 046°18'0 0.0
2015-Feb-18 23:22S 23°58' W 046°18'0 0.0
2015-Feb-18 21:10S 23°58' W 046°18'0 0.0
2015-Feb-18 20:22S 23°58' W 046°18'0 0.0
2015-Feb-18 19:22S 23°58' W 046°18'0 0.0
2015-Feb-18 18:22S 23°58' W 046°18'0 0.0
2015-Feb-18 15:10S 23°58' W 046°18'0 0.0
2015-Feb-18 13:22S 23°58' W 046°18'0 0.0
2015-Feb-18 12:10S 23°58' W 046°18'0 0.0
2015-Feb-18 10:10S 23°58' W 046°18'0 0.0
2015-Feb-18 09:10S 23°58' W 046°18'0 0.0
2015-Feb-18 08:22S 23°58' W 046°18'0 0.0
2015-Feb-18 07:22S 23°58' W 046°18'0 0.0
2015-Feb-18 06:10S 23°58' W 046°18'0 0.0
2015-Feb-18 02:28S 23°58' W 046°18'0 0.0
2015-Feb-18 01:28S 23°58' W 046°18'0 0.0
2015-Feb-18 00:16S 23°58' W 046°18'0 0.0
2015-Feb-17 23:28S 23°58' W 046°18'0 0.0
2015-Feb-17 22:28S 23°58' W 046°18'0 0.0
2015-Feb-17 21:16S 23°58' W 046°18'0 0.0
2015-Feb-17 20:28S 23°58' W 046°18'0 0.0
2015-Feb-17 19:28S 23°58' W 046°18'0 0.0
2015-Feb-17 17:28S 23°58' W 046°18'0 0.0
2015-Feb-17 16:28S 23°58' W 046°18'0 0.0
2015-Feb-17 14:19S 23°58' W 046°18'0 0.0
2015-Feb-17 13:28S 23°58' W 046°18'0 0.0
2015-Feb-17 12:31S 23°58' W 046°18'0 0.0
2015-Feb-17 11:28S 23°58' W 046°18'0 0.0
2015-Feb-17 10:31S 23°58' W 046°18'0 0.0
2015-Feb-17 09:31S 23°58' W 046°18'0 0.0
2015-Feb-17 08:31S 23°58' W 046°18'1 1.4
2015-Feb-17 07:32S 23°59' W 046°17'9 9.4
2015-Feb-17 06:32S 24°07' W 046°23'214 7.3
2015-Feb-16 01:11S 27°17' W 048°12'710.9
2015-Feb-16 00:32S 27°24' W 048°14'1111.0
2015-Feb-15 23:33S 27°34' W 048°18'1111.0
2015-Feb-15 22:33S 27°45' W 048°21'1110.7
2015-Feb-15 21:33S 27°55' W 048°24'  
2015-Feb-12 11:07S 34°54' W 056°13'0 0.0
2015-Feb-12 10:28S 34°54' W 056°13'0 0.4
2015-Feb-12 09:33S 34°55' W 056°14'8 8.5
2015-Feb-12 08:33S 35°01' W 056°07'72 5.9
2015-Feb-11 20:25S 34°46' W 057°33'10 9.7
2015-Feb-11 19:26S 34°44' W 057°44'910.1
2015-Feb-11 18:33S 34°42' W 057°54'1515.2
2015-Feb-11 17:33S 34°37' W 058°12'58 9.6
2015-Feb-11 11:32S 34°01' W 059°07'  
Track history (hours):
 
Tides and Currents Weather Stations Pressure Air Temp Water Temp Dewpoint Dewpoint Depression Visibility Wind Speed Wind Dir Waves Ship Positions

Cap Bianco

Last reported at 2015-Feb-19 21:27 UTC. Time now 2015-Feb-27 15:22 UTC.
Position S 24°13' W 046°26'.

Length 222 m; draft 6.8 m.

Type: Cargo ship. MMSI: 636091489.

Date/timePositionNaut miles runAvg speedWind from/ knotsBaromVisibWave heightAir tempDewpointWater temp
2015-Feb-19 21:27S 24°13' W 046°26'1213.1
2015-Feb-19 20:33S 24°02' W 046°21'5 3.6
2015-Feb-19 19:10S 23°58' W 046°18'0 0.0
2015-Feb-19 18:13S 23°58' W 046°18'0 0.0
2015-Feb-19 17:22S 23°58' W 046°18'0 0.0
2015-Feb-19 16:10S 23°58' W 046°18'0 0.0
2015-Feb-19 15:22S 23°58' W 046°18'0 0.0
2015-Feb-19 14:10S 23°58' W 046°18'0 0.0
2015-Feb-19 13:22S 23°58' W 046°18'0 0.0
2015-Feb-19 12:25S 23°58' W 046°18'0 0.0
2015-Feb-19 10:22S 23°58' W 046°18'0 0.0
2015-Feb-19 08:22S 23°58' W 046°18'0 0.0
2015-Feb-19 07:10S 23°58' W 046°18'0 0.0
2015-Feb-19 06:22S 23°58' W 046°18'0 0.0
2015-Feb-19 04:10S 23°58' W 046°18'0 0.0
2015-Feb-19 03:22S 23°58' W 046°18'0 0.0
2015-Feb-19 02:10S 23°58' W 046°18'0 0.0
2015-Feb-19 01:10S 23°58' W 046°18'0 0.0
2015-Feb-18 23:22S 23°58' W 046°18'0 0.0
2015-Feb-18 21:10S 23°58' W 046°18'0 0.0
2015-Feb-18 20:22S 23°58' W 046°18'0 0.0
2015-Feb-18 19:22S 23°58' W 046°18'0 0.0
2015-Feb-18 18:22S 23°58' W 046°18'0 0.0
2015-Feb-18 15:10S 23°58' W 046°18'0 0.0
2015-Feb-18 13:22S 23°58' W 046°18'0 0.0
2015-Feb-18 12:10S 23°58' W 046°18'0 0.0
2015-Feb-18 10:10S 23°58' W 046°18'0 0.0
2015-Feb-18 09:10S 23°58' W 046°18'0 0.0
2015-Feb-18 08:22S 23°58' W 046°18'0 0.0
2015-Feb-18 07:22S 23°58' W 046°18'0 0.0
2015-Feb-18 06:10S 23°58' W 046°18'0 0.0
2015-Feb-18 02:28S 23°58' W 046°18'0 0.0
2015-Feb-18 01:28S 23°58' W 046°18'0 0.0
2015-Feb-18 00:16S 23°58' W 046°18'0 0.0
2015-Feb-17 23:28S 23°58' W 046°18'0 0.0
2015-Feb-17 22:28S 23°58' W 046°18'0 0.0
2015-Feb-17 21:16S 23°58' W 046°18'0 0.0
2015-Feb-17 20:28S 23°58' W 046°18'0 0.0
2015-Feb-17 19:28S 23°58' W 046°18'0 0.0
2015-Feb-17 17:28S 23°58' W 046°18'0 0.0
2015-Feb-17 16:28S 23°58' W 046°18'0 0.0
2015-Feb-17 14:19S 23°58' W 046°18'0 0.0
2015-Feb-17 13:28S 23°58' W 046°18'0 0.0
2015-Feb-17 12:31S 23°58' W 046°18'0 0.0
2015-Feb-17 11:28S 23°58' W 046°18'0 0.0
2015-Feb-17 10:31S 23°58' W 046°18'0 0.0
2015-Feb-17 09:31S 23°58' W 046°18'0 0.0
2015-Feb-17 08:31S 23°58' W 046°18'1 1.4
2015-Feb-17 07:32S 23°59' W 046°17'9 9.4
2015-Feb-17 06:32S 24°07' W 046°23'214 7.3
2015-Feb-16 01:11S 27°17' W 048°12'710.9
2015-Feb-16 00:32S 27°24' W 048°14'1111.0
2015-Feb-15 23:33S 27°34' W 048°18'1111.0
2015-Feb-15 22:33S 27°45' W 048°21'1110.7
2015-Feb-15 21:33S 27°55' W 048°24'  
2015-Feb-12 11:07S 34°54' W 056°13'0 0.0
2015-Feb-12 10:28S 34°54' W 056°13'0 0.4
2015-Feb-12 09:33S 34°55' W 056°14'8 8.5
2015-Feb-12 08:33S 35°01' W 056°07'72 5.9
2015-Feb-11 20:25S 34°46' W 057°33'10 9.7
2015-Feb-11 19:26S 34°44' W 057°44'910.1
2015-Feb-11 18:33S 34°42' W 057°54'1515.2
2015-Feb-11 17:33S 34°37' W 058°12'58 9.6
2015-Feb-11 11:32S 34°01' W 059°07'  

Dump ship's entire track history